sensor_id;sensor_type;location;lat;lon;timestamp;P1;P2;P0
45112;PMS5003;30873;53.908;27.576;2022-07-23T00:03:52;14.7;13.4;9.5
45112;PMS5003;30873;53.908;27.576;2022-07-23T00:08:53;14.8;13.5;9.7
45112;PMS5003;30873;53.908;27.576;2022-07-23T00:13:52;15.3;14;10.1
45112;PMS5003;30873;53.908;27.576;2022-07-23T00:18:52;14.5;13.3;9
45112;PMS5003;30873;53.908;27.576;2022-07-23T00:23:52;13;12.4;8.5
45112;PMS5003;30873;53.908;27.576;2022-07-23T00:28:52;13.1;12.2;8.6
45112;PMS5003;30873;53.908;27.576;2022-07-23T00:33:52;13.7;12.6;8.8
45112;PMS5003;30873;53.908;27.576;2022-07-23T00:38:53;13.5;12.4;9
45112;PMS5003;30873;53.908;27.576;2022-07-23T00:43:52;13.9;13.1;9
45112;PMS5003;30873;53.908;27.576;2022-07-23T00:48:52;15;13.1;9.2
45112;PMS5003;30873;53.908;27.576;2022-07-23T00:53:52;13.7;12.9;9.4
45112;PMS5003;30873;53.908;27.576;2022-07-23T00:58:52;15.4;13.2;9.6
45112;PMS5003;30873;53.908;27.576;2022-07-23T01:03:52;14.2;12.9;9.2
45112;PMS5003;30873;53.908;27.576;2022-07-23T01:08:53;13.8;12.9;9.4
45112;PMS5003;30873;53.908;27.576;2022-07-23T01:13:52;15.8;14.3;10.1
45112;PMS5003;30873;53.908;27.576;2022-07-23T01:18:52;14.6;13.5;10.3
45112;PMS5003;30873;53.908;27.576;2022-07-23T01:23:52;15.8;14.4;10.5
45112;PMS5003;30873;53.908;27.576;2022-07-23T01:28:52;16.7;15.3;10.6
45112;PMS5003;30873;53.908;27.576;2022-07-23T01:33:52;18.6;17.2;12.5
45112;PMS5003;30873;53.908;27.576;2022-07-23T01:38:52;20.6;19;15
45112;PMS5003;30873;53.908;27.576;2022-07-23T01:43:52;25.6;24.4;19.8
45112;PMS5003;30873;53.908;27.576;2022-07-23T01:48:52;20.2;19.2;14.5
45112;PMS5003;30873;53.908;27.576;2022-07-23T01:53:52;36;32.3;25.4
45112;PMS5003;30873;53.908;27.576;2022-07-23T01:58:52;43;37.5;29.6
45112;PMS5003;30873;53.908;27.576;2022-07-23T02:03:52;37.2;32.5;25.2
45112;PMS5003;30873;53.908;27.576;2022-07-23T02:08:52;55.8;46.7;37.3
45112;PMS5003;30873;53.908;27.576;2022-07-23T02:13:52;50.6;43.6;34.5
45112;PMS5003;30873;53.908;27.576;2022-07-23T02:18:52;59;49;41.5
45112;PMS5003;30873;53.908;27.576;2022-07-23T02:23:52;24.2;21.8;16.6
45112;PMS5003;30873;53.908;27.576;2022-07-23T02:28:52;22.2;21.1;16.4
45112;PMS5003;30873;53.908;27.576;2022-07-23T02:33:52;21;19.9;14.4
45112;PMS5003;30873;53.908;27.576;2022-07-23T02:38:52;18.3;17.3;13
45112;PMS5003;30873;53.908;27.576;2022-07-23T02:43:52;18.8;17.8;12.2
45112;PMS5003;30873;53.908;27.576;2022-07-23T02:48:52;19.8;18.3;12.4
45112;PMS5003;30873;53.908;27.576;2022-07-23T02:53:52;19.9;18.3;13.2
45112;PMS5003;30873;53.908;27.576;2022-07-23T02:58:53;18.8;17.3;13
45112;PMS5003;30873;53.908;27.576;2022-07-23T03:03:52;19.4;18;12.7
45112;PMS5003;30873;53.908;27.576;2022-07-23T03:08:53;17.9;16.8;12.3
45112;PMS5003;30873;53.908;27.576;2022-07-23T03:13:52;21.5;20;14.5
45112;PMS5003;30873;53.908;27.576;2022-07-23T03:18:52;24.4;23.6;19.3
45112;PMS5003;30873;53.908;27.576;2022-07-23T03:23:53;19.6;17.9;13.7
45112;PMS5003;30873;53.908;27.576;2022-07-23T03:28:52;16.4;15.7;10.8
45112;PMS5003;30873;53.908;27.576;2022-07-23T03:33:52;16.4;14.6;10.8
45112;PMS5003;30873;53.908;27.576;2022-07-23T03:38:53;14.9;14.3;10.8
45112;PMS5003;30873;53.908;27.576;2022-07-23T03:43:52;16.4;14.8;10.9
45112;PMS5003;30873;53.908;27.576;2022-07-23T03:48:52;15.3;13.9;10.1
45112;PMS5003;30873;53.908;27.576;2022-07-23T03:53:53;16.7;15.3;10.7
45112;PMS5003;30873;53.908;27.576;2022-07-23T03:58:52;16.8;14.8;11.5
45112;PMS5003;30873;53.908;27.576;2022-07-23T04:03:53;17.3;14.7;11.1
45112;PMS5003;30873;53.908;27.576;2022-07-23T04:08:53;15.5;14.4;10.8
45112;PMS5003;30873;53.908;27.576;2022-07-23T04:13:53;16.9;15.4;10.9
45112;PMS5003;30873;53.908;27.576;2022-07-23T04:18:53;16;14.9;11
45112;PMS5003;30873;53.908;27.576;2022-07-23T04:23:52;15.6;14.9;10.4
45112;PMS5003;30873;53.908;27.576;2022-07-23T04:28:53;16.4;15;10.7
45112;PMS5003;30873;53.908;27.576;2022-07-23T04:33:52;16.6;15.1;11.4
45112;PMS5003;30873;53.908;27.576;2022-07-23T04:38:53;16.9;15.1;10
45112;PMS5003;30873;53.908;27.576;2022-07-23T04:43:53;16.9;15.6;10.6
45112;PMS5003;30873;53.908;27.576;2022-07-23T04:48:53;16.2;15.2;10.7
45112;PMS5003;30873;53.908;27.576;2022-07-23T04:53:53;15.8;14.5;10
45112;PMS5003;30873;53.908;27.576;2022-07-23T04:58:52;16.7;14.8;9.9
45112;PMS5003;30873;53.908;27.576;2022-07-23T05:03:52;16.1;15.3;10.2
45112;PMS5003;30873;53.908;27.576;2022-07-23T05:08:52;15.6;14.6;10.1
45112;PMS5003;30873;53.908;27.576;2022-07-23T05:13:53;15.7;14.2;9.9
45112;PMS5003;30873;53.908;27.576;2022-07-23T05:18:52;15.8;13.7;9.5
45112;PMS5003;30873;53.908;27.576;2022-07-23T05:23:52;14.3;13.6;9.2
45112;PMS5003;30873;53.908;27.576;2022-07-23T05:28:52;14;12.8;9.5
45112;PMS5003;30873;53.908;27.576;2022-07-23T05:33:53;15.6;14.5;10.3
45112;PMS5003;30873;53.908;27.576;2022-07-23T05:38:52;14.3;13.4;9.9
45112;PMS5003;30873;53.908;27.576;2022-07-23T05:43:52;15;13.8;9.7
45112;PMS5003;30873;53.908;27.576;2022-07-23T05:48:53;14;12.9;9.3
45112;PMS5003;30873;53.908;27.576;2022-07-23T05:53:52;12.8;11.5;8.7
45112;PMS5003;30873;53.908;27.576;2022-07-23T05:58:53;13.7;12.3;9
45112;PMS5003;30873;53.908;27.576;2022-07-23T06:03:53;13.1;12.4;9
45112;PMS5003;30873;53.908;27.576;2022-07-23T06:08:52;14.1;13.1;9.6
45112;PMS5003;30873;53.908;27.576;2022-07-23T06:13:52;13.4;12.4;9.2
45112;PMS5003;30873;53.908;27.576;2022-07-23T06:18:52;13.7;12.1;9.6
45112;PMS5003;30873;53.908;27.576;2022-07-23T06:23:52;14.2;13.7;9.7
45112;PMS5003;30873;53.908;27.576;2022-07-23T06:28:52;13.2;12.3;9
45112;PMS5003;30873;53.908;27.576;2022-07-23T06:33:52;13.3;12.8;9.2
45112;PMS5003;30873;53.908;27.576;2022-07-23T06:38:52;14.8;13.8;10.3
45112;PMS5003;30873;53.908;27.576;2022-07-23T06:43:53;14.5;13.7;9.9
45112;PMS5003;30873;53.908;27.576;2022-07-23T06:48:52;14.8;14.1;9.9
45112;PMS5003;30873;53.908;27.576;2022-07-23T06:53:53;14.5;13;9.4
45112;PMS5003;30873;53.908;27.576;2022-07-23T06:58:53;14;12.6;9.4
45112;PMS5003;30873;53.908;27.576;2022-07-23T07:03:52;14.5;13.3;10
45112;PMS5003;30873;53.908;27.576;2022-07-23T07:08:52;15.1;13.7;9.7
45112;PMS5003;30873;53.908;27.576;2022-07-23T07:13:52;14.6;13.7;9.6
45112;PMS5003;30873;53.908;27.576;2022-07-23T07:18:52;14.5;13.7;10.1
45112;PMS5003;30873;53.908;27.576;2022-07-23T07:23:52;13.9;12.9;9.2
45112;PMS5003;30873;53.908;27.576;2022-07-23T07:28:52;14.6;13.6;9.9
45112;PMS5003;30873;53.908;27.576;2022-07-23T07:33:52;13.5;12.4;9
45112;PMS5003;30873;53.908;27.576;2022-07-23T07:38:52;14;13;8.8
45112;PMS5003;30873;53.908;27.576;2022-07-23T07:43:52;14.3;13.6;9.5
45112;PMS5003;30873;53.908;27.576;2022-07-23T07:48:53;15.9;14.6;9.6
45112;PMS5003;30873;53.908;27.576;2022-07-23T07:53:52;14.4;13.6;9.9
45112;PMS5003;30873;53.908;27.576;2022-07-23T07:58:53;14.5;12.7;9
45112;PMS5003;30873;53.908;27.576;2022-07-23T08:03:52;13.6;12.8;9.3
45112;PMS5003;30873;53.908;27.576;2022-07-23T08:08:52;15;13.9;10.1
45112;PMS5003;30873;53.908;27.576;2022-07-23T08:13:53;13.3;12.8;8.6
45112;PMS5003;30873;53.908;27.576;2022-07-23T08:18:53;13.3;12.5;9.1
45112;PMS5003;30873;53.908;27.576;2022-07-23T08:23:52;13.2;12.6;8.8
45112;PMS5003;30873;53.908;27.576;2022-07-23T08:28:53;13.5;12.1;8.9
45112;PMS5003;30873;53.908;27.576;2022-07-23T08:33:52;15.1;13.3;9.3
45112;PMS5003;30873;53.908;27.576;2022-07-23T08:38:53;14.1;13.2;9.2
45112;PMS5003;30873;53.908;27.576;2022-07-23T08:43:53;13.6;12.6;8.7
45112;PMS5003;30873;53.908;27.576;2022-07-23T08:48:53;15.5;14.3;10.1
45112;PMS5003;30873;53.908;27.576;2022-07-23T08:53:53;14.5;13;9.3
45112;PMS5003;30873;53.908;27.576;2022-07-23T08:58:53;15.3;14.6;9.9
45112;PMS5003;30873;53.908;27.576;2022-07-23T09:03:52;15.4;14.5;9.7
45112;PMS5003;30873;53.908;27.576;2022-07-23T09:08:53;15.7;15.6;10.9
45112;PMS5003;30873;53.908;27.576;2022-07-23T09:13:53;17.1;16;12.2
45112;PMS5003;30873;53.908;27.576;2022-07-23T09:18:55;14.9;14.6;10.3
45112;PMS5003;30873;53.908;27.576;2022-07-23T09:23:55;14.7;13.5;9.3
45112;PMS5003;30873;53.908;27.576;2022-07-23T09:28:54;15.9;14.5;10
45112;PMS5003;30873;53.908;27.576;2022-07-23T09:34:01;15.6;14.9;10.1
45112;PMS5003;30873;53.908;27.576;2022-07-23T09:38:53;15;14.2;9.7
45112;PMS5003;30873;53.908;27.576;2022-07-23T09:43:54;15.5;14.1;9.7
45112;PMS5003;30873;53.908;27.576;2022-07-23T09:48:54;14.5;13.6;9.6
45112;PMS5003;30873;53.908;27.576;2022-07-23T09:53:53;16.1;15.1;11.2
45112;PMS5003;30873;53.908;27.576;2022-07-23T09:58:53;16.8;15.4;10.5
45112;PMS5003;30873;53.908;27.576;2022-07-23T10:03:53;16;14;10
45112;PMS5003;30873;53.908;27.576;2022-07-23T10:08:53;14.9;14.4;10
45112;PMS5003;30873;53.908;27.576;2022-07-23T10:13:53;15.5;14.3;10.5
45112;PMS5003;30873;53.908;27.576;2022-07-23T10:18:53;15.4;13.9;9.8
45112;PMS5003;30873;53.908;27.576;2022-07-23T10:24:28;15.6;14.9;10.7
45112;PMS5003;30873;53.908;27.576;2022-07-23T10:28:59;16.5;15.4;10
45112;PMS5003;30873;53.908;27.576;2022-07-23T10:39:10;15.2;14.4;10
45112;PMS5003;30873;53.908;27.576;2022-07-23T10:44:24;15.1;14.5;10.6
45112;PMS5003;30873;53.908;27.576;2022-07-23T10:53:54;16;15;10.4
45112;PMS5003;30873;53.908;27.576;2022-07-23T10:58:53;15.8;14.6;10.5
45112;PMS5003;30873;53.908;27.576;2022-07-23T11:03:56;17.6;16.1;11.4
45112;PMS5003;30873;53.908;27.576;2022-07-23T11:09:25;16.1;14.5;10.2
45112;PMS5003;30873;53.908;27.576;2022-07-23T11:13:53;15.6;15.4;10.5
45112;PMS5003;30873;53.908;27.576;2022-07-23T11:18:54;14.3;13.6;9.6
45112;PMS5003;30873;53.908;27.576;2022-07-23T11:24:00;15;14.6;10.5
45112;PMS5003;30873;53.908;27.576;2022-07-23T11:28:53;26.2;24.6;19.2
45112;PMS5003;30873;53.908;27.576;2022-07-23T11:34:24;23;20.7;16.4
45112;PMS5003;30873;53.908;27.576;2022-07-23T11:38:53;14.9;13.6;9.6
45112;PMS5003;30873;53.908;27.576;2022-07-23T11:43:53;15.5;15;10.4
45112;PMS5003;30873;53.908;27.576;2022-07-23T11:49:01;16;14.8;10.8
45112;PMS5003;30873;53.908;27.576;2022-07-23T11:53:53;15.8;14.7;10.5
45112;PMS5003;30873;53.908;27.576;2022-07-23T11:58:54;15.3;14.4;10.7
45112;PMS5003;30873;53.908;27.576;2022-07-23T12:03:53;15.4;14.9;10.9
45112;PMS5003;30873;53.908;27.576;2022-07-23T12:08:53;15.7;14.5;10.3
45112;PMS5003;30873;53.908;27.576;2022-07-23T12:13:56;17.3;16.2;12.1
45112;PMS5003;30873;53.908;27.576;2022-07-23T12:18:53;16.1;15.5;11.7
45112;PMS5003;30873;53.908;27.576;2022-07-23T12:24:05;34;31.2;23.2
45112;PMS5003;30873;53.908;27.576;2022-07-23T12:28:53;56.4;47.7;40.3
45112;PMS5003;30873;53.908;27.576;2022-07-23T12:33:53;18.2;17.2;12.2
45112;PMS5003;30873;53.908;27.576;2022-07-23T12:38:53;18.1;17.1;12.2
45112;PMS5003;30873;53.908;27.576;2022-07-23T12:43:53;18.9;17.3;12.1
45112;PMS5003;30873;53.908;27.576;2022-07-23T12:48:53;17.9;17.2;12.4
45112;PMS5003;30873;53.908;27.576;2022-07-23T12:53:53;16.5;15.7;10.8
45112;PMS5003;30873;53.908;27.576;2022-07-23T12:58:55;18.7;17.6;12.2
45112;PMS5003;30873;53.908;27.576;2022-07-23T13:03:55;18.9;18.2;12.5
45112;PMS5003;30873;53.908;27.576;2022-07-23T13:08:53;17.7;16.5;12.3
45112;PMS5003;30873;53.908;27.576;2022-07-23T13:13:53;18.5;17.6;12.3
45112;PMS5003;30873;53.908;27.576;2022-07-23T13:18:53;21;18.8;13.8
45112;PMS5003;30873;53.908;27.576;2022-07-23T13:23:53;18.3;17.3;11.9
45112;PMS5003;30873;53.908;27.576;2022-07-23T13:28:53;18.8;17.8;12.7
45112;PMS5003;30873;53.908;27.576;2022-07-23T13:33:53;19.7;18.3;13.1
45112;PMS5003;30873;53.908;27.576;2022-07-23T13:38:53;18.8;17.5;12.4
45112;PMS5003;30873;53.908;27.576;2022-07-23T13:43:53;19.6;18.8;13.2
45112;PMS5003;30873;53.908;27.576;2022-07-23T13:48:53;17.7;17.1;12.3
45112;PMS5003;30873;53.908;27.576;2022-07-23T13:53:53;18.2;17.6;12.9
45112;PMS5003;30873;53.908;27.576;2022-07-23T13:58:53;18.6;17.7;12.8
45112;PMS5003;30873;53.908;27.576;2022-07-23T14:03:53;17.1;16.4;12.1
45112;PMS5003;30873;53.908;27.576;2022-07-23T14:08:53;17.6;17.1;12.5
45112;PMS5003;30873;53.908;27.576;2022-07-23T14:13:53;18.6;17.8;12.5
45112;PMS5003;30873;53.908;27.576;2022-07-23T14:18:53;19.4;18.1;12.5
45112;PMS5003;30873;53.908;27.576;2022-07-23T14:23:53;19.7;18.8;13.2
45112;PMS5003;30873;53.908;27.576;2022-07-23T14:28:53;19.7;19;13.4
45112;PMS5003;30873;53.908;27.576;2022-07-23T14:33:53;20.6;19.7;13.8
45112;PMS5003;30873;53.908;27.576;2022-07-23T14:38:53;19.8;18.9;13.6
45112;PMS5003;30873;53.908;27.576;2022-07-23T14:43:53;18.6;17.9;13.1
45112;PMS5003;30873;53.908;27.576;2022-07-23T14:48:53;18.2;17;13.1
45112;PMS5003;30873;53.908;27.576;2022-07-23T14:53:53;17.7;17.1;12
45112;PMS5003;30873;53.908;27.576;2022-07-23T14:58:53;18.3;17.7;13
45112;PMS5003;30873;53.908;27.576;2022-07-23T15:03:53;17.5;17.1;12.7
45112;PMS5003;30873;53.908;27.576;2022-07-23T15:08:53;18;17;12.7
45112;PMS5003;30873;53.908;27.576;2022-07-23T15:13:53;19.6;18.3;13.4
45112;PMS5003;30873;53.908;27.576;2022-07-23T15:18:53;18.6;18.5;13.2
45112;PMS5003;30873;53.908;27.576;2022-07-23T15:23:53;20.6;19.7;14.1
45112;PMS5003;30873;53.908;27.576;2022-07-23T15:28:53;19.9;19;13.7
45112;PMS5003;30873;53.908;27.576;2022-07-23T15:33:53;19.9;19;13.5
45112;PMS5003;30873;53.908;27.576;2022-07-23T15:38:53;21.5;20.3;14.6
45112;PMS5003;30873;53.908;27.576;2022-07-23T15:43:53;20.4;20;14.3
45112;PMS5003;30873;53.908;27.576;2022-07-23T15:48:53;20.8;20.1;14.4
45112;PMS5003;30873;53.908;27.576;2022-07-23T15:53:53;20.1;18.3;13.3
45112;PMS5003;30873;53.908;27.576;2022-07-23T15:58:53;19.4;18.6;14
45112;PMS5003;30873;53.908;27.576;2022-07-23T16:03:53;19.1;18.4;13.1
45112;PMS5003;30873;53.908;27.576;2022-07-23T16:08:53;20;18.6;13.6
45112;PMS5003;30873;53.908;27.576;2022-07-23T16:13:53;19.3;18.8;13.6
45112;PMS5003;30873;53.908;27.576;2022-07-23T16:18:53;20.4;18.9;13.6
45112;PMS5003;30873;53.908;27.576;2022-07-23T16:23:53;20.5;19.3;13.6
45112;PMS5003;30873;53.908;27.576;2022-07-23T16:28:53;21.3;19.9;14.8
45112;PMS5003;30873;53.908;27.576;2022-07-23T16:33:53;37.4;33;25.5
45112;PMS5003;30873;53.908;27.576;2022-07-23T16:38:53;24.3;22.1;15.9
45112;PMS5003;30873;53.908;27.576;2022-07-23T16:43:53;23.1;22.3;15.2
45112;PMS5003;30873;53.908;27.576;2022-07-23T16:48:53;24.4;22.1;15.5
45112;PMS5003;30873;53.908;27.576;2022-07-23T16:53:53;22.6;21.2;14.7
45112;PMS5003;30873;53.908;27.576;2022-07-23T16:58:53;23.4;21.6;15.7
45112;PMS5003;30873;53.908;27.576;2022-07-23T17:03:53;26.1;24;17.2
45112;PMS5003;30873;53.908;27.576;2022-07-23T17:08:53;23.6;22.5;15.7
45112;PMS5003;30873;53.908;27.576;2022-07-23T17:13:53;21.8;20.6;15.1
45112;PMS5003;30873;53.908;27.576;2022-07-23T17:18:53;27.5;25.6;18.3
45112;PMS5003;30873;53.908;27.576;2022-07-23T17:23:53;28.2;26.3;18.2
45112;PMS5003;30873;53.908;27.576;2022-07-23T17:28:53;26.2;24.5;16.8
45112;PMS5003;30873;53.908;27.576;2022-07-23T17:33:53;26.8;24.7;17.9
45112;PMS5003;30873;53.908;27.576;2022-07-23T17:38:53;26.7;25;17
45112;PMS5003;30873;53.908;27.576;2022-07-23T17:43:53;28.8;27.2;18.7
45112;PMS5003;30873;53.908;27.576;2022-07-23T17:48:53;29.1;27.3;19.6
45112;PMS5003;30873;53.908;27.576;2022-07-23T17:53:53;29.3;27.8;19.3
45112;PMS5003;30873;53.908;27.576;2022-07-23T17:58:53;28.1;26.6;18.4
45112;PMS5003;30873;53.908;27.576;2022-07-23T18:03:53;29.5;27.5;18.8
45112;PMS5003;30873;53.908;27.576;2022-07-23T18:08:53;28.4;26.4;18.7
45112;PMS5003;30873;53.908;27.576;2022-07-23T18:13:53;31.7;29.6;20.6
45112;PMS5003;30873;53.908;27.576;2022-07-23T18:18:53;32.6;29.9;21.2
45112;PMS5003;30873;53.908;27.576;2022-07-23T18:23:54;41.1;35.2;24.9
45112;PMS5003;30873;53.908;27.576;2022-07-23T18:28:53;44.8;38.1;27.6
45112;PMS5003;30873;53.908;27.576;2022-07-23T18:33:53;42.9;36.8;26.3
45112;PMS5003;30873;53.908;27.576;2022-07-23T18:38:53;34.3;30.7;20.6
45112;PMS5003;30873;53.908;27.576;2022-07-23T18:43:53;34;30.3;19.9
45112;PMS5003;30873;53.908;27.576;2022-07-23T18:48:53;37.5;32.5;22.5
45112;PMS5003;30873;53.908;27.576;2022-07-23T18:53:53;34.7;31.4;21.4
45112;PMS5003;30873;53.908;27.576;2022-07-23T18:58:53;38.1;33;22.6
45112;PMS5003;30873;53.908;27.576;2022-07-23T19:03:53;36.9;32.3;21.7
45112;PMS5003;30873;53.908;27.576;2022-07-23T19:08:53;34.2;31.1;21.2
45112;PMS5003;30873;53.908;27.576;2022-07-23T19:13:53;36.3;31.9;21.6
45112;PMS5003;30873;53.908;27.576;2022-07-23T19:18:53;34.7;31.1;21.5
45112;PMS5003;30873;53.908;27.576;2022-07-23T19:23:53;36.6;32.6;21.9
45112;PMS5003;30873;53.908;27.576;2022-07-23T19:28:53;40.2;34.5;23.8
45112;PMS5003;30873;53.908;27.576;2022-07-23T19:33:53;38.8;33.1;22.9
45112;PMS5003;30873;53.908;27.576;2022-07-23T19:38:53;40.2;33.4;22.4
45112;PMS5003;30873;53.908;27.576;2022-07-23T19:43:53;39;33.9;23
45112;PMS5003;30873;53.908;27.576;2022-07-23T19:48:53;38.4;33.2;22.7
45112;PMS5003;30873;53.908;27.576;2022-07-23T19:53:53;37.3;32.2;22.9
45112;PMS5003;30873;53.908;27.576;2022-07-23T19:58:53;36.5;32.6;22
45112;PMS5003;30873;53.908;27.576;2022-07-23T20:03:53;40.5;34.3;23.2
45112;PMS5003;30873;53.908;27.576;2022-07-23T20:08:53;39.5;33.7;22.6
45112;PMS5003;30873;53.908;27.576;2022-07-23T20:13:53;40.2;34.1;23
45112;PMS5003;30873;53.908;27.576;2022-07-23T20:18:53;42;35.2;23.5
45112;PMS5003;30873;53.908;27.576;2022-07-23T20:23:53;40.3;33.3;22.7
45112;PMS5003;30873;53.908;27.576;2022-07-23T20:28:53;39.5;33.4;22.6
45112;PMS5003;30873;53.908;27.576;2022-07-23T20:33:53;37.8;33;22.5
45112;PMS5003;30873;53.908;27.576;2022-07-23T20:38:53;37.5;32.8;22.2
45112;PMS5003;30873;53.908;27.576;2022-07-23T20:43:53;38.1;33.3;22.6
45112;PMS5003;30873;53.908;27.576;2022-07-23T20:48:53;38.4;33.9;22.9
45112;PMS5003;30873;53.908;27.576;2022-07-23T20:53:53;41.8;35.1;23.6
45112;PMS5003;30873;53.908;27.576;2022-07-23T20:58:53;41.8;35.2;22.7
45112;PMS5003;30873;53.908;27.576;2022-07-23T21:03:53;38.7;34.1;22.7
45112;PMS5003;30873;53.908;27.576;2022-07-23T21:08:53;38.7;33.9;22.4
45112;PMS5003;30873;53.908;27.576;2022-07-23T21:13:53;38.4;34.1;22.6
45112;PMS5003;30873;53.908;27.576;2022-07-23T21:18:53;39.9;34.1;22
45112;PMS5003;30873;53.908;27.576;2022-07-23T21:23:53;40.8;34.8;23.4
45112;PMS5003;30873;53.908;27.576;2022-07-23T21:28:53;40.4;34.8;23.7
45112;PMS5003;30873;53.908;27.576;2022-07-23T21:33:53;41;34.9;22.7
45112;PMS5003;30873;53.908;27.576;2022-07-23T21:38:53;39.2;34.4;23.5
45112;PMS5003;30873;53.908;27.576;2022-07-23T21:43:53;39.1;33.8;23.1
45112;PMS5003;30873;53.908;27.576;2022-07-23T21:48:53;41.3;34.9;23.5
45112;PMS5003;30873;53.908;27.576;2022-07-23T21:53:53;40.1;35.2;23.8
45112;PMS5003;30873;53.908;27.576;2022-07-23T21:58:53;40.2;34.4;23.4
45112;PMS5003;30873;53.908;27.576;2022-07-23T22:03:53;42.7;35.3;23.9
45112;PMS5003;30873;53.908;27.576;2022-07-23T22:08:53;42.3;35.8;23.5
45112;PMS5003;30873;53.908;27.576;2022-07-23T22:13:53;38.7;33.6;22.9
45112;PMS5003;30873;53.908;27.576;2022-07-23T22:18:53;40;34.3;23.1
45112;PMS5003;30873;53.908;27.576;2022-07-23T22:23:53;41.1;35.1;23.4
45112;PMS5003;30873;53.908;27.576;2022-07-23T22:28:53;43;36.4;23.8
45112;PMS5003;30873;53.908;27.576;2022-07-23T22:33:53;43;36.6;24.1
45112;PMS5003;30873;53.908;27.576;2022-07-23T22:38:53;43.3;37.4;24.3
45112;PMS5003;30873;53.908;27.576;2022-07-23T22:43:53;43.9;36.5;24.1
45112;PMS5003;30873;53.908;27.576;2022-07-23T22:48:53;44;37.1;24.2
45112;PMS5003;30873;53.908;27.576;2022-07-23T22:53:53;42.9;36.2;23.9
45112;PMS5003;30873;53.908;27.576;2022-07-23T22:58:53;44.4;36.7;23.9
45112;PMS5003;30873;53.908;27.576;2022-07-23T23:03:53;44.8;37;24.5
45112;PMS5003;30873;53.908;27.576;2022-07-23T23:08:53;47.7;38.9;25.5
45112;PMS5003;30873;53.908;27.576;2022-07-23T23:13:53;48.7;40;25.8
45112;PMS5003;30873;53.908;27.576;2022-07-23T23:18:53;47.4;39.4;25.2
45112;PMS5003;30873;53.908;27.576;2022-07-23T23:23:53;44.7;37.7;24.3
45112;PMS5003;30873;53.908;27.576;2022-07-23T23:28:53;47.4;38.6;24.7
45112;PMS5003;30873;53.908;27.576;2022-07-23T23:33:53;47.2;38.5;25.4
45112;PMS5003;30873;53.908;27.576;2022-07-23T23:38:53;48.7;38.8;25.6
45112;PMS5003;30873;53.908;27.576;2022-07-23T23:43:53;49.3;40.2;26.4
45112;PMS5003;30873;53.908;27.576;2022-07-23T23:48:53;48.2;39.3;25.8
45112;PMS5003;30873;53.908;27.576;2022-07-23T23:53:53;47.7;39;25.6
45112;PMS5003;30873;53.908;27.576;2022-07-23T23:58:53;47.5;39.1;25.7
